sensor_id;sensor_type;location;lat;lon;timestamp;pressure;altitude;pressure_sealevel;temperature;humidity
55010;BME280;40903;51.638;7.528;2024-03-23T00:53:12;100393.81;;;7.76;100.00
55010;BME280;40903;51.638;7.528;2024-03-23T00:55:38;100392.50;;;7.68;100.00
55010;BME280;40903;51.638;7.528;2024-03-23T00:58:03;100392.53;;;7.64;100.00
55010;BME280;40903;51.638;7.528;2024-03-23T01:00:29;100384.38;;;7.64;100.00
55010;BME280;40903;51.638;7.528;2024-03-23T01:02:55;100383.84;;;7.62;100.00
55010;BME280;40903;51.638;7.528;2024-03-23T01:05:20;100382.22;;;7.61;100.00
55010;BME280;40903;51.638;7.528;2024-03-23T01:07:46;100382.50;;;7.59;100.00
55010;BME280;40903;51.638;7.528;2024-03-23T01:10:11;100364.34;;;7.60;100.00
55010;BME280;40903;51.638;7.528;2024-03-23T01:12:37;100377.06;;;7.59;100.00
55010;BME280;40903;51.638;7.528;2024-03-23T01:15:02;100369.75;;;7.60;100.00
55010;BME280;40903;51.638;7.528;2024-03-23T01:17:28;100357.81;;;7.61;100.00
55010;BME280;40903;51.638;7.528;2024-03-23T01:19:53;100355.38;;;7.59;100.00
55010;BME280;40903;51.638;7.528;2024-03-23T01:22:19;100354.00;;;7.62;100.00
55010;BME280;40903;51.638;7.528;2024-03-23T01:24:44;100357.25;;;7.64;100.00
55010;BME280;40903;51.638;7.528;2024-03-23T01:27:10;100351.00;;;7.63;100.00
55010;BME280;40903;51.638;7.528;2024-03-23T01:29:35;100352.91;;;7.63;100.00
55010;BME280;40903;51.638;7.528;2024-03-23T01:32:01;100345.88;;;7.62;100.00
55010;BME280;40903;51.638;7.528;2024-03-23T01:34:26;100344.78;;;7.63;100.00
55010;BME280;40903;51.638;7.528;2024-03-23T01:36:53;100342.84;;;7.63;100.00
55010;BME280;40903;51.638;7.528;2024-03-23T01:39:18;100330.38;;;7.62;100.00
55010;BME280;40903;51.638;7.528;2024-03-23T01:41:44;100333.09;;;7.62;100.00
55010;BME280;40903;51.638;7.528;2024-03-23T01:44:09;100329.28;;;7.63;100.00
55010;BME280;40903;51.638;7.528;2024-03-23T01:46:37;100319.25;;;7.64;100.00
55010;BME280;40903;51.638;7.528;2024-03-23T01:49:03;100322.75;;;7.64;100.00
55010;BME280;40903;51.638;7.528;2024-03-23T01:51:30;100313.84;;;7.64;100.00
55010;BME280;40903;51.638;7.528;2024-03-23T01:53:56;100330.38;;;7.62;100.00
55010;BME280;40903;51.638;7.528;2024-03-23T01:56:22;100317.13;;;7.61;100.00
55010;BME280;40903;51.638;7.528;2024-03-23T01:58:47;100326.34;;;7.60;100.00
55010;BME280;40903;51.638;7.528;2024-03-23T02:01:13;100318.75;;;7.57;100.00
55010;BME280;40903;51.638;7.528;2024-03-23T02:03:38;100317.69;;;7.53;100.00
55010;BME280;40903;51.638;7.528;2024-03-23T02:06:04;100323.41;;;7.51;100.00
55010;BME280;40903;51.638;7.528;2024-03-23T02:08:32;100305.78;;;7.49;100.00
55010;BME280;40903;51.638;7.528;2024-03-23T02:10:58;100300.41;;;7.44;100.00
55010;BME280;40903;51.638;7.528;2024-03-23T02:13:24;100296.38;;;7.36;100.00
55010;BME280;40903;51.638;7.528;2024-03-23T02:15:49;100291.22;;;7.35;100.00
55010;BME280;40903;51.638;7.528;2024-03-23T02:18:15;100299.91;;;7.32;100.00
55010;BME280;40903;51.638;7.528;2024-03-23T02:20:40;100304.00;;;7.24;100.00
55010;BME280;40903;51.638;7.528;2024-03-23T02:23:13;100303.78;;;7.16;100.00
55010;BME280;40903;51.638;7.528;2024-03-23T02:25:38;100307.03;;;7.13;100.00
55010;BME280;40903;51.638;7.528;2024-03-23T02:28:04;100308.13;;;7.17;100.00
55010;BME280;40903;51.638;7.528;2024-03-23T02:30:29;100295.91;;;7.14;100.00
55010;BME280;40903;51.638;7.528;2024-03-23T02:32:55;100296.75;;;7.15;100.00
55010;BME280;40903;51.638;7.528;2024-03-23T02:35:21;100294.03;;;7.15;100.00
55010;BME280;40903;51.638;7.528;2024-03-23T02:37:47;100291.03;;;7.16;100.00
55010;BME280;40903;51.638;7.528;2024-03-23T02:40:14;100287.53;;;7.16;100.00
55010;BME280;40903;51.638;7.528;2024-03-23T02:43:05;100294.03;;;7.15;100.00
55010;BME280;40903;51.638;7.528;2024-03-23T02:45:30;100292.16;;;7.10;100.00
55010;BME280;40903;51.638;7.528;2024-03-23T02:47:56;100294.84;;;7.10;100.00
55010;BME280;40903;51.638;7.528;2024-03-23T02:50:21;100292.44;;;7.04;100.00
55010;BME280;40903;51.638;7.528;2024-03-23T02:52:47;100296.81;;;7.00;100.00
55010;BME280;40903;51.638;7.528;2024-03-23T02:55:13;100303.59;;;6.97;100.00
55010;BME280;40903;51.638;7.528;2024-03-23T02:57:39;100292.19;;;7.00;100.00
55010;BME280;40903;51.638;7.528;2024-03-23T03:00:05;100286.50;;;6.97;100.00
55010;BME280;40903;51.638;7.528;2024-03-23T03:02:31;100280.00;;;6.93;100.00
55010;BME280;40903;51.638;7.528;2024-03-23T03:04:57;100277.84;;;6.95;100.00
55010;BME280;40903;51.638;7.528;2024-03-23T03:07:23;100279.22;;;6.92;100.00
55010;BME280;40903;51.638;7.528;2024-03-23T03:09:48;100271.63;;;6.94;100.00
55010;BME280;40903;51.638;7.528;2024-03-23T03:12:14;100284.06;;;6.90;100.00
55010;BME280;40903;51.638;7.528;2024-03-23T03:14:39;100277.31;;;6.93;100.00
55010;BME280;40903;51.638;7.528;2024-03-23T03:17:05;100277.59;;;6.91;100.00
55010;BME280;40903;51.638;7.528;2024-03-23T03:19:30;100279.47;;;6.91;100.00
55010;BME280;40903;51.638;7.528;2024-03-23T03:21:56;100275.41;;;6.88;100.00
55010;BME280;40903;51.638;7.528;2024-03-23T03:24:21;100274.63;;;6.88;100.00
55010;BME280;40903;51.638;7.528;2024-03-23T03:26:47;100280.03;;;6.88;100.00
55010;BME280;40903;51.638;7.528;2024-03-23T03:29:12;100290.88;;;6.88;100.00
55010;BME280;40903;51.638;7.528;2024-03-23T03:31:39;100288.16;;;6.88;100.00
55010;BME280;40903;51.638;7.528;2024-03-23T03:34:04;100280.56;;;6.90;100.00
55010;BME280;40903;51.638;7.528;2024-03-23T03:36:30;100281.38;;;6.90;100.00
55010;BME280;40903;51.638;7.528;2024-03-23T03:38:55;100283.28;;;6.90;100.00
55010;BME280;40903;51.638;7.528;2024-03-23T03:41:21;100282.72;;;6.93;100.00
55010;BME280;40903;51.638;7.528;2024-03-23T03:43:46;100269.69;;;6.95;100.00
55010;BME280;40903;51.638;7.528;2024-03-23T03:46:12;100264.81;;;6.97;100.00
55010;BME280;40903;51.638;7.528;2024-03-23T03:48:37;100261.88;;;6.93;100.00
55010;BME280;40903;51.638;7.528;2024-03-23T03:51:03;100263.22;;;6.91;100.00
55010;BME280;40903;51.638;7.528;2024-03-23T03:53:29;100258.34;;;6.83;100.00
55010;BME280;40903;51.638;7.528;2024-03-23T03:55:55;100261.06;;;6.83;100.00
55010;BME280;40903;51.638;7.528;2024-03-23T03:58:21;100262.72;;;6.84;100.00
55010;BME280;40903;51.638;7.528;2024-03-23T04:00:46;100257.00;;;6.85;100.00
55010;BME280;40903;51.638;7.528;2024-03-23T04:03:11;100258.63;;;6.86;100.00
55010;BME280;40903;51.638;7.528;2024-03-23T04:05:37;100262.44;;;6.85;100.00
55010;BME280;40903;51.638;7.528;2024-03-23T04:08:03;100253.25;;;6.81;100.00
55010;BME280;40903;51.638;7.528;2024-03-23T04:10:30;100257.81;;;6.81;100.00
55010;BME280;40903;51.638;7.528;2024-03-23T04:12:55;100262.16;;;6.82;100.00
55010;BME280;40903;51.638;7.528;2024-03-23T04:15:21;100261.06;;;6.83;100.00
55010;BME280;40903;51.638;7.528;2024-03-23T04:17:46;100264.88;;;6.82;100.00
55010;BME280;40903;51.638;7.528;2024-03-23T04:20:11;100257.81;;;6.81;100.00
55010;BME280;40903;51.638;7.528;2024-03-23T04:22:39;100262.16;;;6.82;100.00
55010;BME280;40903;51.638;7.528;2024-03-23T04:25:05;100258.38;;;6.78;100.00
55010;BME280;40903;51.638;7.528;2024-03-23T04:27:39;100256.78;;;6.77;100.00
55010;BME280;40903;51.638;7.528;2024-03-23T04:30:05;100253.25;;;6.71;100.00
55010;BME280;40903;51.638;7.528;2024-03-23T04:32:35;100252.72;;;6.69;100.00
55010;BME280;40903;51.638;7.528;2024-03-23T04:35:01;100251.13;;;6.68;100.00
55010;BME280;40903;51.638;7.528;2024-03-23T04:37:28;100256.53;;;6.68;100.00
55010;BME280;40903;51.638;7.528;2024-03-23T04:39:54;100253.81;;;6.68;100.00
55010;BME280;40903;51.638;7.528;2024-03-23T04:42:19;100255.44;;;6.69;100.00
55010;BME280;40903;51.638;7.528;2024-03-23T04:44:44;100259.50;;;6.67;100.00
55010;BME280;40903;51.638;7.528;2024-03-23T04:47:10;100250.03;;;6.64;100.00
55010;BME280;40903;51.638;7.528;2024-03-23T04:49:36;100255.47;;;6.64;100.00
55010;BME280;40903;51.638;7.528;2024-03-23T04:52:03;100249.22;;;6.64;100.00
55010;BME280;40903;51.638;7.528;2024-03-23T04:54:29;100256.25;;;6.65;100.00
55010;BME280;40903;51.638;7.528;2024-03-23T04:56:56;100257.88;;;6.66;100.00
55010;BME280;40903;51.638;7.528;2024-03-23T04:59:21;100250.59;;;6.66;100.00
55010;BME280;40903;51.638;7.528;2024-03-23T05:01:47;100244.09;;;6.57;100.00
55010;BME280;40903;51.638;7.528;2024-03-23T05:04:12;100244.66;;;6.54;100.00
55010;BME280;40903;51.638;7.528;2024-03-23T05:06:38;100252.25;;;6.52;100.00
55010;BME280;40903;51.638;7.528;2024-03-23T05:09:03;100251.97;;;6.54;100.00
55010;BME280;40903;51.638;7.528;2024-03-23T05:11:33;100259.28;;;6.53;100.00
55010;BME280;40903;51.638;7.528;2024-03-23T05:13:59;100254.94;;;6.52;100.00
55010;BME280;40903;51.638;7.528;2024-03-23T05:16:25;100256.31;;;6.55;100.00
55010;BME280;40903;51.638;7.528;2024-03-23T05:18:51;100259.81;;;6.55;100.00
55010;BME280;40903;51.638;7.528;2024-03-23T05:21:17;100265.53;;;6.54;100.00
55010;BME280;40903;51.638;7.528;2024-03-23T05:23:42;100260.09;;;6.54;100.00
55010;BME280;40903;51.638;7.528;2024-03-23T05:26:08;100263.34;;;6.51;100.00
55010;BME280;40903;51.638;7.528;2024-03-23T05:28:34;100263.06;;;6.52;100.00
55010;BME280;40903;51.638;7.528;2024-03-23T05:31:00;100262.25;;;6.52;100.00
55010;BME280;40903;51.638;7.528;2024-03-23T05:33:53;100270.38;;;6.52;100.00
55010;BME280;40903;51.638;7.528;2024-03-23T05:36:40;100266.06;;;6.51;100.00
55010;BME280;40903;51.638;7.528;2024-03-23T05:42:01;100266.59;;;6.48;100.00
55010;BME280;40903;51.638;7.528;2024-03-23T05:44:46;100260.66;;;6.46;100.00
55010;BME280;40903;51.638;7.528;2024-03-23T05:47:30;100259.81;;;6.45;100.00
55010;BME280;40903;51.638;7.528;2024-03-23T05:50:16;100269.34;;;6.43;100.00
55010;BME280;40903;51.638;7.528;2024-03-23T05:52:49;100263.63;;;6.44;100.00
55010;BME280;40903;51.638;7.528;2024-03-23T05:55:42;100267.16;;;6.45;100.00
55010;BME280;40903;51.638;7.528;2024-03-23T05:58:16;100255.25;;;6.46;100.00
55010;BME280;40903;51.638;7.528;2024-03-23T06:00:42;100257.38;;;6.49;100.00
55010;BME280;40903;51.638;7.528;2024-03-23T06:03:11;100260.09;;;6.49;100.00
55010;BME280;40903;51.638;7.528;2024-03-23T06:05:42;100265.78;;;6.52;100.00
55010;BME280;40903;51.638;7.528;2024-03-23T06:08:08;100263.91;;;6.48;100.00
55010;BME280;40903;51.638;7.528;2024-03-23T06:10:35;100257.69;;;6.47;100.00
55010;BME280;40903;51.638;7.528;2024-03-23T06:13:00;100257.38;;;6.49;100.00
55010;BME280;40903;51.638;7.528;2024-03-23T06:15:25;100254.69;;;6.49;100.00
55010;BME280;40903;51.638;7.528;2024-03-23T06:17:52;100254.13;;;6.52;100.00
55010;BME280;40903;51.638;7.528;2024-03-23T06:20:18;100262.81;;;6.54;100.00
55010;BME280;40903;51.638;7.528;2024-03-23T06:22:43;100267.16;;;6.55;100.00
55010;BME280;40903;51.638;7.528;2024-03-23T06:25:08;100261.97;;;6.58;100.00
55010;BME280;40903;51.638;7.528;2024-03-23T06:27:34;100264.41;;;6.60;100.00
55010;BME280;40903;51.638;7.528;2024-03-23T06:30:00;100266.84;;;6.61;100.00
55010;BME280;40903;51.638;7.528;2024-03-23T06:32:25;100258.44;;;6.63;100.00
55010;BME280;40903;51.638;7.528;2024-03-23T06:34:51;100256.25;;;6.65;100.00
55010;BME280;40903;51.638;7.528;2024-03-23T06:37:19;100270.34;;;6.67;100.00
55010;BME280;40903;51.638;7.528;2024-03-23T06:39:46;100271.44;;;6.71;100.00
55010;BME280;40903;51.638;7.528;2024-03-23T06:42:12;100269.78;;;6.75;100.00
55010;BME280;40903;51.638;7.528;2024-03-23T06:44:40;100276.00;;;6.75;100.00
55010;BME280;40903;51.638;7.528;2024-03-23T06:47:05;100264.91;;;6.77;100.00
55010;BME280;40903;51.638;7.528;2024-03-23T06:52:52;100286.00;;;6.80;100.00
55010;BME280;40903;51.638;7.528;2024-03-23T06:58:26;100279.78;;;6.84;100.00
55010;BME280;40903;51.638;7.528;2024-03-23T07:01:00;100281.09;;;6.92;100.00
55010;BME280;40903;51.638;7.528;2024-03-23T07:03:32;100279.19;;;6.97;100.00
55010;BME280;40903;51.638;7.528;2024-03-23T07:06:06;100281.06;;;7.02;100.00
55010;BME280;40903;51.638;7.528;2024-03-23T07:08:43;100278.59;;;7.10;100.00
55010;BME280;40903;51.638;7.528;2024-03-23T07:11:08;100282.63;;;7.13;100.00
55010;BME280;40903;51.638;7.528;2024-03-23T07:13:34;100283.69;;;7.22;100.00
55010;BME280;40903;51.638;7.528;2024-03-23T07:15:59;100287.47;;;7.21;100.00
55010;BME280;40903;51.638;7.528;2024-03-23T07:18:25;100278.78;;;7.29;100.00
55010;BME280;40903;51.638;7.528;2024-03-23T07:20:55;100273.31;;;7.34;100.00
55010;BME280;40903;51.638;7.528;2024-03-23T07:23:24;100285.22;;;7.38;100.00
55010;BME280;40903;51.638;7.528;2024-03-23T07:25:59;100276.50;;;7.46;100.00
55010;BME280;40903;51.638;7.528;2024-03-23T07:28:25;100280.84;;;7.47;100.00
55010;BME280;40903;51.638;7.528;2024-03-23T07:31:10;100284.03;;;7.54;100.00
55010;BME280;40903;51.638;7.528;2024-03-23T07:33:37;100282.06;;;7.64;100.00
55010;BME280;40903;51.638;7.528;2024-03-23T07:36:03;100277.41;;;7.74;100.00
55010;BME280;40903;51.638;7.528;2024-03-23T07:38:29;100277.31;;;7.84;100.00
55010;BME280;40903;51.638;7.528;2024-03-23T07:41:11;100278.34;;;7.88;100.00
55010;BME280;40903;51.638;7.528;2024-03-23T07:43:38;100281.50;;;8.05;100.00
55010;BME280;40903;51.638;7.528;2024-03-23T07:46:04;100281.94;;;8.22;100.00
55010;BME280;40903;51.638;7.528;2024-03-23T07:48:30;100276.94;;;8.34;100.00
55010;BME280;40903;51.638;7.528;2024-03-23T07:51:07;100275.13;;;8.48;100.00
55010;BME280;40903;51.638;7.528;2024-03-23T07:53:33;100275.09;;;8.53;100.00
55010;BME280;40903;51.638;7.528;2024-03-23T07:58:26;100277.13;;;8.43;100.00
55010;BME280;40903;51.638;7.528;2024-03-23T08:00:53;100280.06;;;8.46;100.00
55010;BME280;40903;51.638;7.528;2024-03-23T08:03:18;100278.94;;;8.52;100.00
55010;BME280;40903;51.638;7.528;2024-03-23T08:05:44;100286.94;;;8.62;100.00
55010;BME280;40903;51.638;7.528;2024-03-23T08:08:09;100286.91;;;8.67;100.00
55010;BME280;40903;51.638;7.528;2024-03-23T08:10:36;100283.91;;;8.69;100.00
55010;BME280;40903;51.638;7.528;2024-03-23T08:13:02;100280.66;;;8.90;100.00
55010;BME280;40903;51.638;7.528;2024-03-23T08:15:30;100282.16;;;9.01;100.00
55010;BME280;40903;51.638;7.528;2024-03-23T08:17:59;100277.41;;;9.12;100.00
55010;BME280;40903;51.638;7.528;2024-03-23T08:20:24;100275.94;;;9.19;100.00
55010;BME280;40903;51.638;7.528;2024-03-23T08:22:50;100271.63;;;9.18;100.00
55010;BME280;40903;51.638;7.528;2024-03-23T08:25:15;100282.63;;;9.08;100.00
55010;BME280;40903;51.638;7.528;2024-03-23T08:27:44;100277.16;;;8.90;100.00
55010;BME280;40903;51.638;7.528;2024-03-23T08:30:10;100273.59;;;8.89;100.00
55010;BME280;40903;51.638;7.528;2024-03-23T08:32:36;100281.94;;;8.74;100.00
55010;BME280;40903;51.638;7.528;2024-03-23T08:35:01;100285.41;;;8.56;100.00
55010;BME280;40903;51.638;7.528;2024-03-23T08:37:27;100281.13;;;8.50;100.00
55010;BME280;40903;51.638;7.528;2024-03-23T08:39:52;100279.50;;;8.49;100.00
55010;BME280;40903;51.638;7.528;2024-03-23T08:42:18;100277.97;;;8.38;100.00
55010;BME280;40903;51.638;7.528;2024-03-23T08:44:43;100271.84;;;8.28;100.00
55010;BME280;40903;51.638;7.528;2024-03-23T08:47:11;100281.13;;;8.17;100.00
55010;BME280;40903;51.638;7.528;2024-03-23T08:49:37;100274.41;;;8.09;100.00
55010;BME280;40903;51.638;7.528;2024-03-23T08:52:02;100282.25;;;8.11;100.00
55010;BME280;40903;51.638;7.528;2024-03-23T08:54:28;100281.72;;;8.14;100.00
55010;BME280;40903;51.638;7.528;2024-03-23T08:56:55;100286.50;;;8.27;100.00
55010;BME280;40903;51.638;7.528;2024-03-23T08:59:20;100280.50;;;8.30;100.00
55010;BME280;40903;51.638;7.528;2024-03-23T09:01:46;100286.97;;;8.34;100.00
55010;BME280;40903;51.638;7.528;2024-03-23T09:04:11;100268.25;;;8.32;100.00
55010;BME280;40903;51.638;7.528;2024-03-23T09:06:37;100276.13;;;8.34;100.00
55010;BME280;40903;51.638;7.528;2024-03-23T09:09:02;100265.69;;;8.46;100.00
55010;BME280;40903;51.638;7.528;2024-03-23T09:11:28;100270.88;;;8.66;100.00
55010;BME280;40903;51.638;7.528;2024-03-23T09:13:53;100270.88;;;8.89;100.00
55010;BME280;40903;51.638;7.528;2024-03-23T09:16:19;100269.00;;;9.08;100.00
55010;BME280;40903;51.638;7.528;2024-03-23T09:18:44;100263.06;;;9.06;100.00
55010;BME280;40903;51.638;7.528;2024-03-23T09:21:13;100271.72;;;8.90;100.00
55010;BME280;40903;51.638;7.528;2024-03-23T09:23:40;100260.53;;;8.91;100.00
55010;BME280;40903;51.638;7.528;2024-03-23T09:26:05;100275.97;;;8.96;100.00
55010;BME280;40903;51.638;7.528;2024-03-23T09:28:33;100268.78;;;9.28;100.00
55010;BME280;40903;51.638;7.528;2024-03-23T09:31:06;100258.56;;;9.57;100.00
55010;BME280;40903;51.638;7.528;2024-03-23T09:33:35;100264.88;;;9.71;100.00
55010;BME280;40903;51.638;7.528;2024-03-23T09:36:04;100262.34;;;9.93;100.00
55010;BME280;40903;51.638;7.528;2024-03-23T09:38:30;100275.47;;;10.09;100.00
55010;BME280;40903;51.638;7.528;2024-03-23T09:40:57;100262.31;;;10.30;100.00
55010;BME280;40903;51.638;7.528;2024-03-23T09:43:23;100263.00;;;10.35;100.00
55010;BME280;40903;51.638;7.528;2024-03-23T09:45:49;100269.66;;;10.29;100.00
55010;BME280;40903;51.638;7.528;2024-03-23T09:48:15;100259.19;;;10.04;100.00
55010;BME280;40903;51.638;7.528;2024-03-23T09:50:42;100270.84;;;9.91;100.00
55010;BME280;40903;51.638;7.528;2024-03-23T09:53:11;100260.69;;;9.78;100.00
55010;BME280;40903;51.638;7.528;2024-03-23T09:55:43;100267.47;;;9.63;100.00
55010;BME280;40903;51.638;7.528;2024-03-23T09:58:16;100261.16;;;9.49;100.00
55010;BME280;40903;51.638;7.528;2024-03-23T10:00:42;100266.63;;;9.44;100.00
55010;BME280;40903;51.638;7.528;2024-03-23T10:03:08;100257.22;;;9.36;100.00
55010;BME280;40903;51.638;7.528;2024-03-23T10:05:35;100265.97;;;9.33;100.00
55010;BME280;40903;51.638;7.528;2024-03-23T10:08:17;100246.78;;;9.43;100.00
55010;BME280;40903;51.638;7.528;2024-03-23T10:10:44;100250.75;;;9.32;100.00
55010;BME280;40903;51.638;7.528;2024-03-23T10:13:10;100248.72;;;9.24;100.00
55010;BME280;40903;51.638;7.528;2024-03-23T10:15:39;100250.53;;;9.10;100.00
55010;BME280;40903;51.638;7.528;2024-03-23T10:18:18;100252.19;;;9.06;100.00
55010;BME280;40903;51.638;7.528;2024-03-23T10:20:51;100244.19;;;8.96;100.00
55010;BME280;40903;51.638;7.528;2024-03-23T10:23:17;100248.63;;;8.87;100.00
55010;BME280;40903;51.638;7.528;2024-03-23T10:25:42;100249.13;;;8.89;100.00
55010;BME280;40903;51.638;7.528;2024-03-23T10:28:08;100251.03;;;9.12;100.00
55010;BME280;40903;51.638;7.528;2024-03-23T10:30:35;100253.94;;;9.39;100.00
55010;BME280;40903;51.638;7.528;2024-03-23T10:33:11;100248.97;;;9.78;100.00
55010;BME280;40903;51.638;7.528;2024-03-23T10:35:37;100248.91;;;10.01;100.00
55010;BME280;40903;51.638;7.528;2024-03-23T10:38:07;100247.97;;;10.24;98.50
55010;BME280;40903;51.638;7.528;2024-03-23T10:40:36;100231.84;;;10.55;97.33
55010;BME280;40903;51.638;7.528;2024-03-23T10:43:06;100244.59;;;10.86;93.08
55010;BME280;40903;51.638;7.528;2024-03-23T10:45:33;100235.78;;;11.03;93.14
55010;BME280;40903;51.638;7.528;2024-03-23T10:47:59;100251.25;;;11.07;87.96
55010;BME280;40903;51.638;7.528;2024-03-23T10:50:25;100238.09;;;11.09;85.98
55010;BME280;40903;51.638;7.528;2024-03-23T10:52:52;100246.16;;;11.28;87.92
55010;BME280;40903;51.638;7.528;2024-03-23T10:55:19;100244.59;;;11.49;85.71
55010;BME280;40903;51.638;7.528;2024-03-23T10:57:49;100240.81;;;11.72;85.24
55010;BME280;40903;51.638;7.528;2024-03-23T11:00:17;100239.34;;;11.87;85.73
55010;BME280;40903;51.638;7.528;2024-03-23T11:02:43;100233.63;;;12.19;89.46
55010;BME280;40903;51.638;7.528;2024-03-23T11:07:53;100254.38;;;12.51;75.65
55010;BME280;40903;51.638;7.528;2024-03-23T11:10:29;100259.28;;;12.32;72.19
55010;BME280;40903;51.638;7.528;2024-03-23T11:12:58;100252.06;;;12.36;76.07
55010;BME280;40903;51.638;7.528;2024-03-23T11:15:43;100255.19;;;12.21;76.52
55010;BME280;40903;51.638;7.528;2024-03-23T11:18:09;100263.31;;;11.90;75.92
55010;BME280;40903;51.638;7.528;2024-03-23T11:20:35;100243.91;;;11.78;79.58
55010;BME280;40903;51.638;7.528;2024-03-23T11:23:01;100266.56;;;11.57;76.97
55010;BME280;40903;51.638;7.528;2024-03-23T11:25:28;100269.63;;;11.42;80.63
55010;BME280;40903;51.638;7.528;2024-03-23T11:30:21;100285.19;;;10.29;82.39
55010;BME280;40903;51.638;7.528;2024-03-23T11:32:49;100306.09;;;9.65;90.78
55010;BME280;40903;51.638;7.528;2024-03-23T11:35:27;100303.94;;;8.78;100.00
55010;BME280;40903;51.638;7.528;2024-03-23T11:40:36;100304.47;;;7.84;100.00
55010;BME280;40903;51.638;7.528;2024-03-23T11:43:04;100298.59;;;7.68;100.00
55010;BME280;40903;51.638;7.528;2024-03-23T11:48:07;100297.50;;;7.68;100.00
55010;BME280;40903;51.638;7.528;2024-03-23T11:50:34;100290.63;;;7.81;100.00
55010;BME280;40903;51.638;7.528;2024-03-23T11:55:49;100276.47;;;8.51;100.00
55010;BME280;40903;51.638;7.528;2024-03-23T11:58:19;100269.16;;;8.98;100.00
55010;BME280;40903;51.638;7.528;2024-03-23T12:00:58;100263.72;;;9.40;100.00
55010;BME280;40903;51.638;7.528;2024-03-23T12:03:24;100268.53;;;9.80;100.00
55010;BME280;40903;51.638;7.528;2024-03-23T12:06:00;100276.34;;;10.05;100.00
55010;BME280;40903;51.638;7.528;2024-03-23T12:11:12;100278.69;;;10.11;96.84
55010;BME280;40903;51.638;7.528;2024-03-23T12:13:39;100261.47;;;10.16;100.00
55010;BME280;40903;51.638;7.528;2024-03-23T12:16:17;100259.44;;;10.53;100.00
55010;BME280;40903;51.638;7.528;2024-03-23T12:18:44;100257.34;;;10.91;100.00
55010;BME280;40903;51.638;7.528;2024-03-23T12:21:10;100256.31;;;11.00;94.43
55010;BME280;40903;51.638;7.528;2024-03-23T12:23:38;100246.03;;;10.97;97.86
55010;BME280;40903;51.638;7.528;2024-03-23T12:26:04;100252.06;;;10.94;93.16
55010;BME280;40903;51.638;7.528;2024-03-23T12:28:29;100246.59;;;11.08;91.29
55010;BME280;40903;51.638;7.528;2024-03-23T12:30:55;100245.88;;;11.16;87.83
55010;BME280;40903;51.638;7.528;2024-03-23T12:33:21;100235.91;;;11.47;85.21
55010;BME280;40903;51.638;7.528;2024-03-23T12:35:47;100245.13;;;11.51;82.80
55010;BME280;40903;51.638;7.528;2024-03-23T12:38:13;100227.66;;;11.73;87.16
55010;BME280;40903;51.638;7.528;2024-03-23T12:40:38;100243.00;;;11.83;83.30
55010;BME280;40903;51.638;7.528;2024-03-23T12:43:04;100244.06;;;11.73;81.06
55010;BME280;40903;51.638;7.528;2024-03-23T12:45:29;100243.34;;;11.68;83.36
55010;BME280;40903;51.638;7.528;2024-03-23T12:47:55;100263.81;;;11.44;83.82
55010;BME280;40903;51.638;7.528;2024-03-23T12:50:20;100248.22;;;11.09;84.42
55010;BME280;40903;51.638;7.528;2024-03-23T12:52:46;100261.75;;;10.73;85.32
55010;BME280;40903;51.638;7.528;2024-03-23T12:55:12;100261.94;;;10.50;88.72
55010;BME280;40903;51.638;7.528;2024-03-23T12:57:37;100258.94;;;9.69;98.72
55010;BME280;40903;51.638;7.528;2024-03-23T13:00:03;100255.03;;;9.57;100.00
55010;BME280;40903;51.638;7.528;2024-03-23T13:02:29;100256.13;;;9.74;100.00
55010;BME280;40903;51.638;7.528;2024-03-23T13:04:55;100244.47;;;10.05;100.00
55010;BME280;40903;51.638;7.528;2024-03-23T13:07:22;100245.97;;;10.57;100.00
55010;BME280;40903;51.638;7.528;2024-03-23T13:09:51;100259.34;;;10.85;100.00
55010;BME280;40903;51.638;7.528;2024-03-23T13:12:17;100242.97;;;10.85;100.00
55010;BME280;40903;51.638;7.528;2024-03-23T13:14:47;100249.56;;;10.84;93.95
55010;BME280;40903;51.638;7.528;2024-03-23T13:17:12;100245.97;;;10.57;93.55
55010;BME280;40903;51.638;7.528;2024-03-23T13:19:38;100242.84;;;10.50;95.57
55010;BME280;40903;51.638;7.528;2024-03-23T13:22:04;100234.75;;;10.31;90.71
55010;BME280;40903;51.638;7.528;2024-03-23T13:24:30;100231.78;;;10.14;87.57
55010;BME280;40903;51.638;7.528;2024-03-23T13:26:56;100239.31;;;10.04;88.91
55010;BME280;40903;51.638;7.528;2024-03-23T13:29:22;100234.91;;;10.08;84.95
55010;BME280;40903;51.638;7.528;2024-03-23T13:31:49;100242.06;;;10.04;82.44
55010;BME280;40903;51.638;7.528;2024-03-23T13:34:17;100228.84;;;10.11;85.29
55010;BME280;40903;51.638;7.528;2024-03-23T13:36:43;100234.50;;;10.14;84.93
55010;BME280;40903;51.638;7.528;2024-03-23T13:39:09;100238.34;;;9.95;85.39
55010;BME280;40903;51.638;7.528;2024-03-23T13:41:41;100250.22;;;9.67;86.85
55010;BME280;40903;51.638;7.528;2024-03-23T13:44:08;100256.78;;;9.29;88.61
55010;BME280;40903;51.638;7.528;2024-03-23T13:46:34;100249.94;;;9.13;95.21
55010;BME280;40903;51.638;7.528;2024-03-23T13:49:00;100252.44;;;8.86;97.71
55010;BME280;40903;51.638;7.528;2024-03-23T13:51:26;100247.59;;;8.83;100.00
55010;BME280;40903;51.638;7.528;2024-03-23T13:57:12;100272.47;;;8.72;100.00
55010;BME280;40903;51.638;7.528;2024-03-23T13:59:37;100252.84;;;8.98;100.00
55010;BME280;40903;51.638;7.528;2024-03-23T14:02:31;100277.22;;;9.27;100.00
55010;BME280;40903;51.638;7.528;2024-03-23T14:05:01;100251.25;;;9.34;100.00
55010;BME280;40903;51.638;7.528;2024-03-23T14:07:33;100248.34;;;9.68;100.00
55010;BME280;40903;51.638;7.528;2024-03-23T14:10:03;100253.28;;;9.97;100.00
55010;BME280;40903;51.638;7.528;2024-03-23T14:12:28;100243.19;;;10.16;99.04
55010;BME280;40903;51.638;7.528;2024-03-23T14:14:54;100251.75;;;10.10;94.25